createdAt,value
2023-05-05T00:01:28.224Z,101643.50
2023-05-05T00:06:31.301Z,101647.50
2023-05-05T00:11:34.114Z,101636.63
2023-05-05T00:16:38.677Z,101633.25
2023-05-05T00:21:41.593Z,101634.16
2023-05-05T00:26:44.332Z,101631.16
2023-05-05T00:31:51.789Z,101625.84
2023-05-05T00:36:55.815Z,101613.66
2023-05-05T00:41:59.409Z,101615.22
2023-05-05T00:47:03.755Z,101609.38
2023-05-05T00:52:07.287Z,101611.91
2023-05-05T00:57:11.572Z,101608.97
2023-05-05T01:02:19.590Z,101615.19
2023-05-05T01:07:31.697Z,101615.31
2023-05-05T01:12:41.510Z,101602.03
2023-05-05T01:17:55.896Z,101597.22
2023-05-05T01:23:03.780Z,101589.84
2023-05-05T01:28:25.264Z,101589.38
2023-05-05T01:33:36.198Z,101596.13
2023-05-05T01:38:42.194Z,101597.47
2023-05-05T01:43:47.999Z,101586.88
2023-05-05T01:48:53.714Z,101580.63
2023-05-05T01:54:00.163Z,101573.59
2023-05-05T01:59:04.263Z,101576.03
2023-05-05T02:04:10.638Z,101577.44
2023-05-05T02:09:14.878Z,101568.81
2023-05-05T02:14:19.946Z,101566.16
2023-05-05T02:19:29.529Z,101571.31
2023-05-05T02:24:32.427Z,101559.31
2023-05-05T02:29:39.942Z,101551.91
2023-05-05T02:34:46.235Z,101543.81
2023-05-05T02:39:58.921Z,101549.59
2023-05-05T02:45:11.335Z,101551.00
2023-05-05T02:50:19.102Z,101550.28
2023-05-05T02:55:38.599Z,101535.81
2023-05-05T03:00:47.113Z,101526.88
2023-05-05T03:06:00.128Z,101533.41
2023-05-05T03:11:07.407Z,101535.34
2023-05-05T03:16:16.329Z,101529.84
2023-05-05T03:21:21.779Z,101519.41
2023-05-05T03:26:25.049Z,101510.22
2023-05-05T03:31:28.513Z,101506.38
2023-05-05T03:36:35.849Z,101513.59
2023-05-05T03:41:39.260Z,101503.41
2023-05-05T03:46:44.488Z,101505.88
2023-05-05T03:51:51.371Z,101526.34
2023-05-05T03:56:54.724Z,101510.47
2023-05-05T04:01:57.804Z,101512.88
2023-05-05T04:07:02.030Z,101515.03
2023-05-05T04:12:06.118Z,101506.38
2023-05-05T04:17:09.027Z,101513.84
2023-05-05T04:22:13.658Z,101509.06
2023-05-05T04:27:16.528Z,101515.63
2023-05-05T04:32:20.000Z,101503.78
2023-05-05T04:37:26.243Z,101512.13
2023-05-05T04:42:30.383Z,101504.75
2023-05-05T04:47:38.313Z,101516.91
2023-05-05T04:52:42.887Z,101515.06
2023-05-05T04:57:45.839Z,101520.44
2023-05-05T05:02:48.837Z,101526.25
2023-05-05T05:07:53.096Z,101526.78
2023-05-05T05:12:56.063Z,101508.00
2023-05-05T05:17:58.966Z,101503.63
2023-05-05T05:23:04.287Z,101501.56
2023-05-05T05:28:10.984Z,101498.06
2023-05-05T05:33:27.759Z,101502.13
2023-05-05T05:38:33.885Z,101521.13
2023-05-05T05:43:39.049Z,101522.78
2023-05-05T05:48:42.182Z,101510.00
2023-05-05T05:53:47.415Z,101526.41
2023-05-05T05:58:50.285Z,101507.56
2023-05-05T06:03:53.645Z,101506.38
2023-05-05T06:08:58.830Z,101506.00
2023-05-05T06:14:02.263Z,101503.09
2023-05-05T06:19:09.435Z,101487.16
2023-05-05T06:24:16.765Z,101496.88
2023-05-05T06:29:19.814Z,101479.56
2023-05-05T06:34:22.592Z,101482.84
2023-05-05T06:39:26.788Z,101474.25
2023-05-05T06:44:31.010Z,101469.88
2023-05-05T06:49:33.860Z,101466.63
2023-05-05T06:54:37.954Z,101485.31
2023-05-05T06:59:40.723Z,101477.09
2023-05-05T07:04:44.580Z,101478.19
2023-05-05T07:09:48.745Z,101498.81
2023-05-05T07:14:51.581Z,101507.22
2023-05-05T07:19:54.962Z,101501.84
2023-05-05T07:24:59.065Z,101491.13
2023-05-05T07:30:05.033Z,101501.84
2023-05-05T07:35:11.316Z,101517.44
2023-05-05T07:40:15.468Z,101527.84
2023-05-05T07:45:18.599Z,101534.16
2023-05-05T07:50:21.655Z,101531.56
2023-05-05T07:55:25.809Z,101537.66
2023-05-05T08:00:28.599Z,101541.41
2023-05-05T08:05:31.391Z,101542.91
2023-05-05T08:10:35.523Z,101543.50
2023-05-05T08:15:38.368Z,101548.38
2023-05-05T08:20:41.233Z,101547.69
2023-05-05T08:25:45.906Z,101554.91
2023-05-05T08:30:49.474Z,101541.34
2023-05-05T08:35:52.303Z,101532.31
2023-05-05T08:40:56.463Z,101521.16
2023-05-05T08:46:00.338Z,101511.47
2023-05-05T08:51:06.137Z,101504.19
2023-05-05T08:56:12.096Z,101504.56
2023-05-05T09:01:15.697Z,101486.03
2023-05-05T09:06:21.313Z,101481.16
2023-05-05T09:11:25.704Z,101486.69
2023-05-05T09:16:28.507Z,101486.03
2023-05-05T09:21:32.070Z,101484.38
2023-05-05T09:26:37.351Z,101484.25
2023-05-05T09:31:40.228Z,101468.28
2023-05-05T09:36:44.282Z,101468.94
2023-05-05T09:41:48.475Z,101443.47
2023-05-05T09:46:52.610Z,101463.81
2023-05-05T09:51:55.987Z,101468.06
2023-05-05T09:57:00.245Z,101440.25
2023-05-05T10:02:12.738Z,101446.97
2023-05-05T10:07:25.468Z,101444.28
2023-05-05T10:12:31.210Z,101448.81
2023-05-05T10:18:02.243Z,101446.75
2023-05-05T10:23:11.382Z,101447.19
2023-05-05T10:28:22.126Z,101450.47
2023-05-05T10:33:32.597Z,101446.31
2023-05-05T10:38:36.941Z,101454.84
2023-05-05T10:43:41.798Z,101462.56
2023-05-05T10:48:51.601Z,101457.66
2023-05-05T10:54:01.453Z,101463.44
2023-05-05T10:59:41.479Z,101445.19
2023-05-05T11:04:44.448Z,101454.63
2023-05-05T11:09:56.639Z,101437.72
2023-05-05T11:15:37.831Z,101418.38
2023-05-05T11:21:18.403Z,101424.63
2023-05-05T11:26:52.245Z,101423.59
2023-05-05T11:32:14.274Z,101411.44
2023-05-05T11:37:17.297Z,101419.81
2023-05-05T11:42:27.452Z,101417.13
2023-05-05T11:47:33.617Z,101419.50
2023-05-05T11:52:36.884Z,101408.88
2023-05-05T11:57:42.742Z,101399.13
2023-05-05T12:02:47.067Z,101399.59
2023-05-05T12:07:56.831Z,101397.25
2023-05-05T12:12:59.627Z,101378.53
2023-05-05T12:18:05.897Z,101380.72
2023-05-05T12:23:12.199Z,101367.19
2023-05-05T12:28:14.989Z,101378.78
2023-05-05T12:33:20.518Z,101368.03
2023-05-05T12:38:23.511Z,101373.94
2023-05-05T12:43:28.509Z,101373.81
2023-05-05T12:48:32.843Z,101366.94
2023-05-05T12:53:35.661Z,101368.59
2023-05-05T12:58:50.810Z,101362.75
2023-05-05T13:04:12.867Z,101373.94
2023-05-05T13:09:25.842Z,101363.28
2023-05-05T13:14:28.811Z,101371.44
2023-05-05T13:19:35.540Z,101362.94
2023-05-05T13:24:50.684Z,101359.22
2023-05-05T13:29:55.312Z,101353.28
2023-05-05T13:35:00.600Z,101362.00
2023-05-05T13:40:03.512Z,101353.84
2023-05-05T13:45:07.185Z,101353.19
2023-05-05T13:50:12.343Z,101341.94
2023-05-05T13:55:15.078Z,101330.03
2023-05-05T14:00:20.375Z,101324.16
2023-05-05T14:05:24.468Z,101319.50
2023-05-05T14:10:29.764Z,101312.75
2023-05-05T14:15:32.661Z,101318.28
2023-05-05T14:20:36.834Z,101319.22
2023-05-05T14:25:39.862Z,101321.19
2023-05-05T14:30:42.593Z,101321.91
2023-05-05T14:35:46.730Z,101310.63
2023-05-05T14:40:49.562Z,101306.22
2023-05-05T14:45:53.129Z,101301.13
2023-05-05T14:50:57.258Z,101309.72
2023-05-05T14:56:00.067Z,101312.75
2023-05-05T15:01:02.822Z,101292.63
2023-05-05T15:06:08.227Z,101308.53
2023-05-05T15:11:11.132Z,101295.31
2023-05-05T15:16:14.028Z,101288.63
2023-05-05T15:21:18.248Z,101262.53
2023-05-05T15:26:21.315Z,101254.72
2023-05-05T15:31:24.087Z,101257.81
2023-05-05T15:36:28.623Z,101266.59
2023-05-05T15:41:31.550Z,101268.72
2023-05-05T15:46:34.432Z,101268.31
2023-05-05T15:51:38.637Z,101268.22
2023-05-05T15:56:43.122Z,101263.09
2023-05-05T16:01:48.065Z,101253.50
2023-05-05T16:06:52.309Z,101261.88
2023-05-05T16:11:55.303Z,101264.44
2023-05-05T16:16:58.324Z,101251.03
2023-05-05T16:27:55.878Z,101254.03
2023-05-05T16:33:31.718Z,101264.09
2023-05-05T16:59:07.586Z,101288.63
2023-05-05T17:04:23.974Z,101303.28
2023-05-05T17:09:47.645Z,101303.13
2023-05-05T17:21:05.779Z,101303.38
2023-05-05T17:26:14.557Z,101306.34
2023-05-05T17:31:55.492Z,101300.72
2023-05-05T17:36:58.285Z,101315.84
2023-05-05T17:42:06.694Z,101309.75
2023-05-05T17:47:26.910Z,101314.94
2023-05-05T17:52:55.906Z,101318.28
2023-05-05T17:58:30.139Z,101323.47
2023-05-05T18:03:53.383Z,101327.97
2023-05-05T18:09:01.175Z,101322.84
2023-05-05T18:14:06.111Z,101319.97
2023-05-05T18:33:22.648Z,101338.09
2023-05-05T18:38:36.605Z,101351.50
2023-05-05T18:43:58.614Z,101363.31
2023-05-05T19:03:32.312Z,101388.28
2023-05-05T19:35:30.652Z,101394.50
2023-05-05T20:09:58.826Z,101387.25
2023-05-05T20:30:07.945Z,101356.47
2023-05-05T20:42:05.728Z,101333.19
2023-05-05T20:47:10.749Z,101318.66
2023-05-05T20:52:15.965Z,101321.88
2023-05-05T20:57:20.509Z,101303.94
2023-05-05T21:02:24.665Z,101299.31
2023-05-05T21:07:29.951Z,101317.34
2023-05-05T21:12:35.125Z,101326.19
2023-05-05T21:17:39.415Z,101313.59
2023-05-05T21:22:45.431Z,101321.72
2023-05-05T21:27:48.436Z,101331.97
2023-05-05T21:32:52.998Z,101338.19
2023-05-05T21:37:56.061Z,101312.81
2023-05-05T21:42:58.861Z,101309.41
2023-05-05T21:48:03.022Z,101314.25
2023-05-05T21:53:05.884Z,101323.41
2023-05-05T21:58:09.508Z,101327.94
2023-05-05T22:03:13.794Z,101322.72
2023-05-05T22:08:16.620Z,101338.97
2023-05-05T22:13:19.547Z,101325.97
2023-05-05T22:18:23.704Z,101322.84
2023-05-05T22:23:26.464Z,101332.97
2023-05-05T22:28:29.800Z,101346.81
2023-05-05T22:33:33.911Z,101340.28
2023-05-05T22:38:36.901Z,101341.59
2023-05-05T22:43:40.243Z,101332.78
2023-05-05T22:48:44.352Z,101336.97
2023-05-05T22:53:47.156Z,101345.38
2023-05-05T22:58:50.216Z,101342.13
2023-05-05T23:03:54.478Z,101333.31
2023-05-05T23:08:57.227Z,101334.28
2023-05-05T23:13:59.957Z,101337.03
2023-05-05T23:19:04.178Z,101336.41
2023-05-05T23:24:07.424Z,101333.31
2023-05-05T23:29:10.209Z,101340.72
2023-05-05T23:34:14.760Z,101337.66
2023-05-05T23:39:17.611Z,101344.72
2023-05-05T23:44:20.426Z,101340.66
2023-05-05T23:49:26.265Z,101340.31
2023-05-05T23:54:28.992Z,101349.31
2023-05-05T23:59:31.835Z,101343.38
